02/22 18:00 更新

弱い雨が降っている
3,000ftに雲が少し
5,000ftに雲が多い
8,000ftに雲が多い

地上風: 180°8kt

上空風(熊谷ウインドプロファイラ)
13,000ft: 250°56kt
10,000ft: 250°32kt
 7,000ft: 250°28kt
 3,000ft: 200°12kt

地上: 15℃
上空: -8.1℃

日没: 17:29

実況天気図


予想天気図


RJTJ 220900Z 18008KT 9999 -SHRA FEW030 BKN050 BKN080 15/09 Q1013 RMK 1CU030 6SC050 7AC080 A2991=

GPV気象予報
気象庁
日本気象協会

玉淀ダム放流量(1,000m3/sを超えた7時間後にDZ冠水)
太郎衛門橋テレメータ水位(11mでDZ冠水)

skydive.jp